createdAt,value
2018-05-11T00:00:30.245Z,14.30
2018-05-11T00:02:57.861Z,14.40
2018-05-11T00:05:24.904Z,14.30
2018-05-11T00:07:51.174Z,14.30
2018-05-11T00:10:17.653Z,14.30
2018-05-11T00:12:44.221Z,14.20
2018-05-11T00:15:11.088Z,14.20
2018-05-11T00:17:38.592Z,14.10
2018-05-11T00:20:06.473Z,14.20
2018-05-11T00:22:34.024Z,14.10
2018-05-11T00:25:00.992Z,14.10
2018-05-11T00:27:27.197Z,14.10
2018-05-11T00:29:54.172Z,14.00
2018-05-11T00:32:20.388Z,14.10
2018-05-11T00:34:47.437Z,13.90
2018-05-11T00:37:13.736Z,13.90
2018-05-11T00:39:39.941Z,13.90
2018-05-11T00:42:06.191Z,13.80
2018-05-11T00:44:32.429Z,13.70
2018-05-11T00:46:59.541Z,13.50
2018-05-11T00:49:27.218Z,13.40
2018-05-11T00:51:54.901Z,13.30
2018-05-11T00:54:21.123Z,13.20
2018-05-11T00:56:47.801Z,13.00
2018-05-11T00:59:14.600Z,13.10
2018-05-11T01:01:41.595Z,12.90
2018-05-11T01:04:09.044Z,13.00
2018-05-11T01:06:35.305Z,12.90
2018-05-11T01:09:01.997Z,12.80
2018-05-11T01:11:28.967Z,12.70
2018-05-11T01:13:55.537Z,12.70
2018-05-11T01:16:21.783Z,12.70
2018-05-11T01:18:48.786Z,12.60
2018-05-11T01:21:16.742Z,12.50
2018-05-11T01:23:43.733Z,12.50
2018-05-11T01:26:09.958Z,12.50
2018-05-11T01:28:36.193Z,12.40
2018-05-11T01:31:02.438Z,12.40
2018-05-11T01:33:28.939Z,12.30
2018-05-11T01:35:55.918Z,12.10
2018-05-11T01:38:22.134Z,12.10
2018-05-11T01:40:49.617Z,12.00
2018-05-11T01:43:16.430Z,12.00
2018-05-11T01:45:44.030Z,12.00
2018-05-11T01:48:10.709Z,12.00
2018-05-11T01:50:37.421Z,12.00
2018-05-11T01:53:03.645Z,11.90
2018-05-11T01:55:30.470Z,11.90
2018-05-11T01:57:57.437Z,11.90
2018-05-11T02:00:24.087Z,11.90
2018-05-11T02:02:50.341Z,11.80
2018-05-11T02:05:16.996Z,11.80
2018-05-11T02:07:43.550Z,11.80
2018-05-11T02:10:09.765Z,11.90
2018-05-11T02:12:35.993Z,11.90
2018-05-11T02:15:02.878Z,11.80
2018-05-11T02:17:29.657Z,11.80
2018-05-11T02:19:56.445Z,11.80
2018-05-11T02:22:23.245Z,11.70
2018-05-11T02:24:50.213Z,11.60
2018-05-11T02:27:17.141Z,11.60
2018-05-11T02:29:44.112Z,11.70
2018-05-11T02:32:10.325Z,11.70
2018-05-11T02:34:37.309Z,11.70
2018-05-11T02:37:03.537Z,11.60
2018-05-11T02:39:29.853Z,11.70
2018-05-11T02:41:57.477Z,11.70
2018-05-11T02:44:24.106Z,11.70
2018-05-11T02:46:50.301Z,11.70
2018-05-11T02:49:17.105Z,11.70
2018-05-11T02:51:44.043Z,11.70
2018-05-11T02:54:10.265Z,11.70
2018-05-11T02:56:36.797Z,11.70
2018-05-11T02:59:03.040Z,11.70
2018-05-11T03:01:29.255Z,11.70
2018-05-11T03:03:55.985Z,11.70
2018-05-11T03:06:22.946Z,11.70
2018-05-11T03:08:49.220Z,11.70
2018-05-11T03:11:15.442Z,11.70
2018-05-11T03:13:42.085Z,11.70
2018-05-11T03:16:08.301Z,11.70
2018-05-11T03:18:34.591Z,11.60
2018-05-11T03:21:01.454Z,11.60
2018-05-11T03:23:28.913Z,11.60
2018-05-11T03:25:55.873Z,11.70
2018-05-11T03:28:22.813Z,11.70
2018-05-11T03:30:49.773Z,11.70
2018-05-11T03:33:16.724Z,11.60
2018-05-11T03:35:43.776Z,11.60
2018-05-11T03:38:11.397Z,11.60
2018-05-11T03:40:37.637Z,11.60
2018-05-11T03:43:04.365Z,11.70
2018-05-11T03:45:30.608Z,11.70
2018-05-11T03:47:57.509Z,11.60
2018-05-11T03:50:25.173Z,11.60
2018-05-11T03:52:52.125Z,11.70
2018-05-11T03:55:18.333Z,11.60
2018-05-11T03:57:44.944Z,11.70
2018-05-11T04:00:11.173Z,11.70
2018-05-11T04:02:50.764Z,11.70
2018-05-11T04:05:30.754Z,11.70
2018-05-11T04:08:09.373Z,11.70
2018-05-11T04:10:35.620Z,11.70
2018-05-11T04:13:03.592Z,11.70
2018-05-11T04:15:29.785Z,11.70
2018-05-11T04:17:57.051Z,11.80
2018-05-11T04:20:23.261Z,11.80
2018-05-11T04:22:50.845Z,11.90
2018-05-11T04:25:17.072Z,11.90
2018-05-11T04:27:43.313Z,11.90
2018-05-11T04:30:09.620Z,12.00
2018-05-11T04:32:35.950Z,11.90
2018-05-11T04:35:04.977Z,12.00
2018-05-11T04:37:31.179Z,12.00
2018-05-11T04:39:57.785Z,12.00
2018-05-11T04:42:24.004Z,12.10
2018-05-11T04:44:50.613Z,12.10
2018-05-11T04:47:18.030Z,12.20
2018-05-11T04:49:44.833Z,12.20
2018-05-11T04:52:12.155Z,12.20
2018-05-11T04:54:38.381Z,12.20
2018-05-11T04:57:05.065Z,12.30
2018-05-11T04:59:32.358Z,12.40
2018-05-11T05:01:58.583Z,12.40
2018-05-11T05:04:25.921Z,12.50
2018-05-11T05:06:52.893Z,12.40
2018-05-11T05:09:19.445Z,12.40
2018-05-11T05:11:45.673Z,12.50
2018-05-11T05:14:12.797Z,12.60
2018-05-11T05:16:39.775Z,12.70
2018-05-11T05:19:06.675Z,12.70
2018-05-11T05:21:34.085Z,12.70
2018-05-11T05:24:00.301Z,12.70
2018-05-11T05:26:28.525Z,12.80
2018-05-11T05:28:54.749Z,12.70
2018-05-11T05:31:20.966Z,12.80
2018-05-11T05:33:47.867Z,12.80
2018-05-11T05:36:14.489Z,12.80
2018-05-11T05:38:40.702Z,12.90
2018-05-11T05:41:06.901Z,12.90
2018-05-11T05:43:34.232Z,13.00
2018-05-11T05:46:00.999Z,13.00
2018-05-11T05:48:28.461Z,13.10
2018-05-11T05:50:56.261Z,13.10
2018-05-11T05:53:22.481Z,13.20
2018-05-11T05:55:49.168Z,13.20
2018-05-11T05:58:15.680Z,13.20
2018-05-11T06:00:41.893Z,13.20
2018-05-11T06:03:08.859Z,13.30
2018-05-11T06:05:35.532Z,13.30
2018-05-11T06:08:02.063Z,13.40
2018-05-11T06:10:28.293Z,13.50
2018-05-11T06:12:54.905Z,13.50
2018-05-11T06:15:22.205Z,13.60
2018-05-11T06:17:48.816Z,13.60
2018-05-11T06:20:15.062Z,13.70
2018-05-11T06:22:42.112Z,13.80
2018-05-11T06:25:08.346Z,13.70
2018-05-11T06:27:34.602Z,13.70
2018-05-11T06:30:00.877Z,13.80
2018-05-11T06:32:27.645Z,13.80
2018-05-11T06:34:55.205Z,14.00
2018-05-11T06:37:22.282Z,14.00
2018-05-11T06:39:48.998Z,14.00
2018-05-11T06:42:16.785Z,14.20
2018-05-11T06:44:43.027Z,14.20
2018-05-11T06:47:09.853Z,14.20
2018-05-11T06:49:37.832Z,14.50
2018-05-11T06:52:05.128Z,14.60
2018-05-11T06:54:32.791Z,14.60
2018-05-11T06:56:59.714Z,14.70
2018-05-11T06:59:25.936Z,14.60
2018-05-11T07:01:53.026Z,14.80
2018-05-11T07:04:19.735Z,14.70
2018-05-11T07:06:46.693Z,15.00
2018-05-11T07:09:14.140Z,15.10
2018-05-11T07:11:41.097Z,15.20
2018-05-11T07:14:08.507Z,15.20
2018-05-11T07:16:34.726Z,15.20
2018-05-11T07:19:00.967Z,15.50
2018-05-11T07:21:27.237Z,15.50
2018-05-11T07:23:53.454Z,15.50
2018-05-11T07:26:19.778Z,15.50
2018-05-11T07:28:46.616Z,15.40
2018-05-11T07:31:12.873Z,15.50
2018-05-11T07:33:39.377Z,15.40
2018-05-11T07:36:05.614Z,15.50
2018-05-11T07:38:32.246Z,15.40
2018-05-11T07:40:58.950Z,15.40
2018-05-11T07:43:25.292Z,15.60
2018-05-11T07:45:52.159Z,15.80
2018-05-11T07:48:19.549Z,15.90
2018-05-11T07:50:46.200Z,15.90
2018-05-11T07:53:12.857Z,15.90
2018-05-11T07:55:39.649Z,15.90
2018-05-11T07:58:06.611Z,16.30
2018-05-11T08:00:34.374Z,16.20
2018-05-11T08:03:02.260Z,16.40
2018-05-11T08:05:28.863Z,16.40
2018-05-11T08:07:55.084Z,16.60
2018-05-11T08:10:21.983Z,16.70
2018-05-11T08:12:48.211Z,16.80
2018-05-11T08:15:15.201Z,17.30
2018-05-11T08:17:41.468Z,17.30
2018-05-11T08:20:08.063Z,17.70
2018-05-11T08:22:34.311Z,17.80
2018-05-11T08:25:00.532Z,17.90
2018-05-11T08:27:27.156Z,18.00
2018-05-11T08:29:53.816Z,18.10
2018-05-11T08:32:20.046Z,18.20
2018-05-11T08:34:47.285Z,18.40
2018-05-11T08:37:14.951Z,18.50
2018-05-11T08:39:41.909Z,18.60
2018-05-11T08:42:08.155Z,18.60
2018-05-11T08:44:34.384Z,18.70
2018-05-11T08:47:02.319Z,18.60
2018-05-11T08:49:29.983Z,18.50
2018-05-11T08:51:56.650Z,18.50
2018-05-11T08:54:23.609Z,18.60
2018-05-11T08:56:51.272Z,18.70
2018-05-11T08:59:18.642Z,18.50
2018-05-11T09:01:45.369Z,18.40
2018-05-11T09:04:12.774Z,18.00
2018-05-11T09:06:39.353Z,18.00
2018-05-11T09:09:07.049Z,17.90
2018-05-11T09:11:34.014Z,17.90
2018-05-11T09:14:00.252Z,17.80
2018-05-11T09:16:26.489Z,17.90
2018-05-11T09:18:52.813Z,17.90
2018-05-11T09:21:19.614Z,17.90
2018-05-11T09:23:46.226Z,18.00
2018-05-11T09:26:12.429Z,17.70
2018-05-11T09:28:39.762Z,17.60
2018-05-11T09:31:05.992Z,17.60
2018-05-11T09:33:32.975Z,17.50
2018-05-11T09:36:00.534Z,17.80
2018-05-11T09:38:28.104Z,17.80
2018-05-11T09:40:55.066Z,18.00
2018-05-11T09:43:21.285Z,18.00
2018-05-11T09:45:48.274Z,18.10
2018-05-11T09:48:14.990Z,18.10
2018-05-11T09:50:41.821Z,18.00
2018-05-11T09:53:08.773Z,18.30
2018-05-11T09:55:36.338Z,18.20
2018-05-11T09:58:03.869Z,18.30
2018-05-11T10:00:30.563Z,18.20
2018-05-11T10:02:56.773Z,18.30
2018-05-11T10:05:24.379Z,18.20
2018-05-11T10:07:50.632Z,18.30
2018-05-11T10:10:16.861Z,18.50
2018-05-11T10:12:43.101Z,18.70
2018-05-11T10:15:09.334Z,18.80
2018-05-11T10:17:35.631Z,18.80
2018-05-11T10:20:01.913Z,18.90
2018-05-11T10:22:29.520Z,18.80
2018-05-11T10:24:56.920Z,18.90
2018-05-11T10:27:23.185Z,18.90
2018-05-11T10:29:49.421Z,19.10
2018-05-11T10:32:16.073Z,19.10
2018-05-11T10:34:42.322Z,19.20
2018-05-11T10:37:09.281Z,19.10
2018-05-11T10:39:36.291Z,19.30
2018-05-11T10:42:02.515Z,19.30
2018-05-11T10:44:29.214Z,19.40
2018-05-11T10:46:57.285Z,19.50
2018-05-11T10:49:25.020Z,19.60
2018-05-11T10:51:51.519Z,19.60
2018-05-11T10:54:18.441Z,19.60
2018-05-11T10:56:47.513Z,19.80
2018-05-11T10:59:14.235Z,19.70
2018-05-11T11:01:40.456Z,19.90
2018-05-11T11:04:07.272Z,19.80
2018-05-11T11:06:34.299Z,19.90
2018-05-11T11:09:00.543Z,19.80
2018-05-11T11:11:28.192Z,20.00
2018-05-11T11:13:54.445Z,20.00
2018-05-11T11:16:21.405Z,20.20
2018-05-11T11:18:49.693Z,20.40
2018-05-11T11:21:17.240Z,20.50
2018-05-11T11:23:43.805Z,20.50
2018-05-11T11:26:10.045Z,20.60
2018-05-11T11:28:36.261Z,20.70
2018-05-11T11:31:03.937Z,20.80
2018-05-11T11:33:30.161Z,20.70
2018-05-11T11:35:57.126Z,20.90
2018-05-11T11:38:23.374Z,20.90
2018-05-11T11:40:49.646Z,20.90
2018-05-11T11:43:16.192Z,21.10
2018-05-11T11:45:42.409Z,21.10
2018-05-11T11:48:09.075Z,21.20
2018-05-11T11:50:35.749Z,21.30
2018-05-11T11:53:03.041Z,21.60
2018-05-11T11:55:29.257Z,21.60
2018-05-11T11:57:55.981Z,21.60
2018-05-11T12:00:22.941Z,21.80
2018-05-11T12:02:49.904Z,21.90
2018-05-11T12:05:16.437Z,21.90
2018-05-11T12:07:42.657Z,21.90
2018-05-11T12:10:09.945Z,22.00
2018-05-11T12:12:36.182Z,22.00
2018-05-11T12:15:02.438Z,22.00
2018-05-11T12:17:29.072Z,22.10
2018-05-11T12:19:55.800Z,22.10
2018-05-11T12:22:22.017Z,22.10
2018-05-11T12:24:48.977Z,22.20
2018-05-11T12:27:15.822Z,22.20
2018-05-11T12:29:42.041Z,22.30
2018-05-11T12:32:09.006Z,22.50
2018-05-11T12:34:35.817Z,22.50
2018-05-11T12:37:02.047Z,22.60
2018-05-11T12:39:29.349Z,22.50
2018-05-11T12:41:55.619Z,22.50
2018-05-11T12:44:21.895Z,22.60
2018-05-11T12:46:49.320Z,22.80
2018-05-11T12:49:16.130Z,22.80
2018-05-11T12:51:42.868Z,22.80
2018-05-11T12:54:09.094Z,23.00
2018-05-11T12:56:36.649Z,22.90
2018-05-11T12:59:03.599Z,22.80
2018-05-11T13:01:30.557Z,22.90
2018-05-11T13:03:58.132Z,23.10
2018-05-11T13:06:24.805Z,23.10
2018-05-11T13:08:51.013Z,23.20
2018-05-11T13:11:17.229Z,23.40
2018-05-11T13:13:45.101Z,23.40
2018-05-11T13:16:27.001Z,23.40
2018-05-11T13:18:53.951Z,23.50
2018-05-11T13:21:20.927Z,23.60
2018-05-11T13:23:47.141Z,23.60
2018-05-11T13:26:13.765Z,23.40
2018-05-11T13:28:40.728Z,23.30
2018-05-11T13:31:08.701Z,23.30
2018-05-11T13:33:34.933Z,23.50
2018-05-11T13:36:01.915Z,23.60
2018-05-11T13:38:28.609Z,23.60
2018-05-11T13:40:54.846Z,23.70
2018-05-11T13:43:21.089Z,23.80
2018-05-11T13:45:48.545Z,23.90
2018-05-11T13:48:15.413Z,23.90
2018-05-11T13:50:41.893Z,23.90
2018-05-11T13:53:08.125Z,24.00
2018-05-11T13:55:35.033Z,24.30
2018-05-11T13:58:02.079Z,25.60
2018-05-11T14:00:29.001Z,26.10
2018-05-11T14:02:57.780Z,26.60
2018-05-11T14:05:24.701Z,26.60
2018-05-11T14:07:50.970Z,27.00
2018-05-11T14:10:17.286Z,27.20
2018-05-11T14:12:43.832Z,27.40
2018-05-11T14:15:10.633Z,27.70
2018-05-11T14:17:38.057Z,28.20
2018-05-11T14:20:04.302Z,28.20
2018-05-11T14:22:31.113Z,28.50
2018-05-11T14:24:57.403Z,28.60
2018-05-11T14:27:23.561Z,28.70
2018-05-11T14:29:49.817Z,28.90
2018-05-11T14:32:16.038Z,29.10
2018-05-11T14:34:43.070Z,29.30
2018-05-11T14:37:10.051Z,29.10
2018-05-11T14:39:36.302Z,29.10
2018-05-11T14:42:03.096Z,29.60
2018-05-11T14:44:30.062Z,29.90
2018-05-11T14:46:57.252Z,29.90
2018-05-11T14:49:23.923Z,29.80
2018-05-11T14:51:50.789Z,30.00
2018-05-11T14:54:17.899Z,29.50
2018-05-11T14:56:44.598Z,29.50
2018-05-11T14:59:11.562Z,30.00
2018-05-11T15:01:38.630Z,30.00
2018-05-11T15:04:05.264Z,30.20
2018-05-11T15:06:32.294Z,30.40
2018-05-11T15:08:59.969Z,30.80
2018-05-11T15:11:26.937Z,30.60
2018-05-11T15:13:53.582Z,30.50
2018-05-11T15:16:19.801Z,31.00
2018-05-11T15:18:46.069Z,31.40
2018-05-11T15:21:12.976Z,31.60
2018-05-11T15:23:39.214Z,31.60
2018-05-11T15:26:05.434Z,32.10
2018-05-11T15:28:32.426Z,32.30
2018-05-11T15:30:58.985Z,32.30
2018-05-11T15:33:25.629Z,32.60
2018-05-11T15:35:51.864Z,32.30
2018-05-11T15:38:18.093Z,31.80
2018-05-11T15:40:44.990Z,31.80
2018-05-11T15:43:12.354Z,32.20
2018-05-11T15:45:39.321Z,32.60
2018-05-11T15:48:05.993Z,32.60
2018-05-11T15:50:32.689Z,32.20
2018-05-11T15:52:59.640Z,31.80
2018-05-11T15:55:26.685Z,30.50
2018-05-11T15:57:53.294Z,30.50
2018-05-11T16:00:19.554Z,29.60
2018-05-11T16:02:45.793Z,29.00
2018-05-11T16:05:12.451Z,28.30
2018-05-11T16:07:39.882Z,27.00
2018-05-11T16:10:06.871Z,26.90
2018-05-11T16:12:33.889Z,26.00
2018-05-11T16:15:00.096Z,26.00
2018-05-11T16:17:26.354Z,25.70
2018-05-11T16:19:53.125Z,25.50
2018-05-11T16:22:20.076Z,24.90
2018-05-11T16:24:47.540Z,24.70
2018-05-11T16:27:14.519Z,24.40
2018-05-11T16:29:40.804Z,24.40
2018-05-11T16:32:07.348Z,24.20
2018-05-11T16:34:35.509Z,23.80
2018-05-11T16:37:02.711Z,23.90
2018-05-11T16:39:30.092Z,23.70
2018-05-11T16:41:56.792Z,23.60
2018-05-11T16:44:23.514Z,23.50
2018-05-11T16:46:50.403Z,23.30
2018-05-11T16:49:18.007Z,22.90
2018-05-11T16:51:44.742Z,22.90
2018-05-11T16:54:10.982Z,22.90
2018-05-11T16:56:37.896Z,22.90
2018-05-11T16:59:05.224Z,22.70
2018-05-11T17:01:32.929Z,22.50
2018-05-11T17:04:00.601Z,22.40
2018-05-11T17:06:27.928Z,22.30
2018-05-11T17:08:56.141Z,22.30
2018-05-11T17:11:22.943Z,22.30
2018-05-11T17:13:49.203Z,22.30
2018-05-11T17:16:16.763Z,22.10
2018-05-11T17:18:42.987Z,22.10
2018-05-11T17:21:09.954Z,22.00
2018-05-11T17:23:36.981Z,21.70
2018-05-11T17:26:03.236Z,21.70
2018-05-11T17:28:29.937Z,21.50
2018-05-11T17:30:56.577Z,21.30
2018-05-11T17:33:22.901Z,21.20
2018-05-11T17:35:49.626Z,21.20
2018-05-11T17:38:16.460Z,21.20
2018-05-11T17:40:43.454Z,21.20
2018-05-11T17:43:09.689Z,21.20
2018-05-11T17:45:35.936Z,21.10
2018-05-11T17:48:02.597Z,21.10
2018-05-11T17:50:29.392Z,20.90
2018-05-11T17:52:55.625Z,20.80
2018-05-11T17:55:21.857Z,20.70
2018-05-11T17:57:48.469Z,20.70
2018-05-11T18:00:15.479Z,20.50
2018-05-11T18:02:42.201Z,20.50
2018-05-11T18:05:08.939Z,20.40
2018-05-11T18:07:35.173Z,20.30
2018-05-11T18:10:01.426Z,20.30
2018-05-11T18:12:28.364Z,20.20
2018-05-11T18:14:57.133Z,20.00
2018-05-11T18:17:24.122Z,19.80
2018-05-11T18:19:50.393Z,19.80
2018-05-11T18:22:16.669Z,19.70
2018-05-11T18:24:44.431Z,19.50
2018-05-11T18:27:12.139Z,19.40
2018-05-11T18:29:38.813Z,19.30
2018-05-11T18:32:05.107Z,19.30
2018-05-11T18:34:31.821Z,19.10
2018-05-11T18:36:59.165Z,19.00
2018-05-11T18:39:26.485Z,18.80
2018-05-11T18:41:53.566Z,18.80
2018-05-11T18:44:20.341Z,18.80
2018-05-11T18:46:47.909Z,18.70
2018-05-11T18:49:14.566Z,18.70
2018-05-11T18:51:41.101Z,18.70
2018-05-11T18:54:07.599Z,18.60
2018-05-11T18:56:34.047Z,18.40
2018-05-11T18:59:00.285Z,18.30
2018-05-11T19:01:27.869Z,18.10
2018-05-11T19:03:55.482Z,18.00
2018-05-11T19:06:22.719Z,18.00
2018-05-11T19:08:49.527Z,18.00
2018-05-11T19:11:17.237Z,17.80
2018-05-11T19:13:44.261Z,17.80
2018-05-11T19:16:10.606Z,17.70
2018-05-11T19:18:36.930Z,17.70
2018-05-11T19:21:03.501Z,17.60
2018-05-11T19:23:30.543Z,17.50
2018-05-11T19:25:56.757Z,17.50
2018-05-11T19:28:23.725Z,17.30
2018-05-11T19:30:50.616Z,17.30
2018-05-11T19:33:17.477Z,17.30
2018-05-11T19:35:44.209Z,17.20
2018-05-11T19:38:10.955Z,17.10
2018-05-11T19:40:37.626Z,17.10
2018-05-11T19:43:04.268Z,17.10
2018-05-11T19:45:30.502Z,17.00
2018-05-11T19:47:57.097Z,16.90
2018-05-11T19:50:23.912Z,16.80
2018-05-11T19:52:51.296Z,16.60
2018-05-11T19:55:17.529Z,16.70
2018-05-11T19:57:44.253Z,16.60
2018-05-11T20:00:11.763Z,16.40
2018-05-11T20:02:38.465Z,16.40
2018-05-11T20:05:05.910Z,16.20
2018-05-11T20:07:32.883Z,16.20
2018-05-11T20:09:59.633Z,16.20
2018-05-11T20:12:25.805Z,16.10
2018-05-11T20:14:52.032Z,16.10
2018-05-11T20:17:18.345Z,16.10
2018-05-11T20:19:44.579Z,16.10
2018-05-11T20:22:11.680Z,16.10
2018-05-11T20:24:37.911Z,16.00
2018-05-11T20:27:05.247Z,15.90
2018-05-11T20:29:31.486Z,15.90
2018-05-11T20:31:58.138Z,15.80
2018-05-11T20:34:24.796Z,15.80
2018-05-11T20:36:51.038Z,15.70
2018-05-11T20:39:17.653Z,15.60
2018-05-11T20:41:44.398Z,15.60
2018-05-11T20:44:11.045Z,15.50
2018-05-11T20:46:37.698Z,15.50
2018-05-11T20:49:05.230Z,15.40
2018-05-11T20:51:31.877Z,15.40
2018-05-11T20:53:58.113Z,15.30
2018-05-11T20:56:24.847Z,15.30
2018-05-11T20:58:51.895Z,15.30
2018-05-11T21:01:18.120Z,15.30
2018-05-11T21:03:44.465Z,15.20
2018-05-11T21:06:11.221Z,15.20
2018-05-11T21:08:37.789Z,15.20
2018-05-11T21:11:04.462Z,15.20
2018-05-11T21:13:31.438Z,15.10
2018-05-11T21:15:58.194Z,15.00
2018-05-11T21:18:25.032Z,15.00
2018-05-11T21:20:51.295Z,14.90
2018-05-11T21:23:17.512Z,14.80
2018-05-11T21:25:43.766Z,14.80
2018-05-11T21:28:10.390Z,14.80
2018-05-11T21:30:36.615Z,14.70
2018-05-11T21:33:02.841Z,14.70
2018-05-11T21:35:29.513Z,14.70
2018-05-11T21:37:55.721Z,14.70
2018-05-11T21:40:21.952Z,14.60
2018-05-11T21:42:48.175Z,14.60
2018-05-11T21:45:15.166Z,14.50
2018-05-11T21:47:42.021Z,14.50
2018-05-11T21:50:08.968Z,14.40
2018-05-11T21:52:35.649Z,14.50
2018-05-11T21:55:01.873Z,14.40
2018-05-11T21:57:28.856Z,14.50
2018-05-11T21:59:56.345Z,14.40
2018-05-11T22:02:23.062Z,14.30
2018-05-11T22:04:50.662Z,14.30
2018-05-11T22:07:16.880Z,14.30
2018-05-11T22:09:43.534Z,14.30
2018-05-11T22:12:09.777Z,14.30
2018-05-11T22:14:35.981Z,14.20
2018-05-11T22:17:03.131Z,14.20
2018-05-11T22:19:30.104Z,14.10
2018-05-11T22:21:56.336Z,14.20
2018-05-11T22:24:22.572Z,14.10
2018-05-11T22:26:50.221Z,14.10
2018-05-11T22:29:17.185Z,14.10
2018-05-11T22:31:43.397Z,14.00
2018-05-11T22:34:11.138Z,13.90
2018-05-11T22:36:37.344Z,13.90
2018-05-11T22:39:04.901Z,13.90
2018-05-11T22:41:31.119Z,13.90
2018-05-11T22:43:57.664Z,13.90
2018-05-11T22:46:23.904Z,13.90
2018-05-11T22:48:50.446Z,13.90
2018-05-11T22:51:17.205Z,13.80
2018-05-11T22:53:43.936Z,13.80
2018-05-11T22:56:10.597Z,13.70
2018-05-11T22:58:37.405Z,13.70
2018-05-11T23:01:05.060Z,13.70
2018-05-11T23:03:32.261Z,13.60
2018-05-11T23:05:59.117Z,13.60
2018-05-11T23:08:25.346Z,13.60
2018-05-11T23:10:52.253Z,13.60
2018-05-11T23:13:19.603Z,13.50
2018-05-11T23:15:46.557Z,13.50
2018-05-11T23:18:13.557Z,13.40
2018-05-11T23:20:39.792Z,13.40
2018-05-11T23:23:06.037Z,13.50
2018-05-11T23:25:32.820Z,13.40
2018-05-11T23:27:59.785Z,13.40
2018-05-11T23:30:26.769Z,13.40
2018-05-11T23:32:53.012Z,13.40
2018-05-11T23:35:20.942Z,13.30
2018-05-11T23:37:47.901Z,13.30
2018-05-11T23:40:29.112Z,13.30
2018-05-11T23:42:55.344Z,13.20
2018-05-11T23:45:21.656Z,13.10
2018-05-11T23:47:48.197Z,12.90
2018-05-11T23:50:14.917Z,12.80
2018-05-11T23:52:42.207Z,12.80
2018-05-11T23:55:08.416Z,12.80
2018-05-11T23:57:35.253Z,12.80
